Time;durP1;ratioP1;P1;durP2;ratioP2;P2;SDS_P1;SDS_P2;PMS_P1;PMS_P2;Temp;Humidity;BMP_temperature;BMP_pressure;BME280_temperature;BME280_humidity;BME280_pressure;Samples;Min_cycle;Max_cycle;Signal;HPM_P1;HPM_P2
2024/01/05 00:01:49;;;;;;;6.30;5.40;;;;;;;;;;5043212;28;20041;-61
2024/01/05 00:04:15;;;;;;;6.30;4.80;;;;;;;;;;5045117;28;20041;-61
2024/01/05 00:06:41;;;;;;;8.60;6.55;;;;;;;;;;5042182;28;20051;-61
2024/01/05 00:09:07;;;;;;;8.02;6.30;;;;;;;;;;5044548;28;20582;-61
2024/01/05 00:11:33;;;;;;;7.95;6.15;;;;;;;;;;5041576;28;20033;-61
2024/01/05 00:13:59;;;;;;;5.60;5.10;;;;;;;;;;5039847;28;20032;-61
2024/01/05 00:16:25;;;;;;;9.55;6.43;;;;;;;;;;5043647;28;20041;-61
2024/01/05 00:18:51;;;;;;;9.30;6.18;;;;;;;;;;5043995;28;20072;-61
2024/01/05 00:21:21;;;;;;;8.35;5.70;;;;;;;;;;5044966;28;20048;-61
2024/01/05 00:23:47;;;;;;;7.30;5.38;;;;;;;;;;5040087;28;20048;-61
2024/01/05 00:26:13;;;;;;;10.00;6.80;;;;;;;;;;5043194;28;21069;-61
2024/01/05 00:28:39;;;;;;;10.10;6.35;;;;;;;;;;5040301;28;20136;-61
2024/01/05 00:31:05;;;;;;;10.45;5.85;;;;;;;;;;5043083;28;20166;-61
2024/01/05 00:33:31;;;;;;;9.48;6.18;;;;;;;;;;5040327;28;20499;-62
2024/01/05 00:35:59;;;;;;;7.00;5.30;;;;;;;;;;5045244;28;20094;-62
2024/01/05 00:38:25;;;;;;;9.15;6.07;;;;;;;;;;5044344;28;20045;-62
2024/01/05 00:40:51;;;;;;;7.05;5.10;;;;;;;;;;5044383;28;20044;-61
2024/01/05 00:43:17;;;;;;;10.98;5.35;;;;;;;;;;5041120;28;20547;-61
2024/01/05 00:45:43;;;;;;;9.80;6.32;;;;;;;;;;5040384;28;20079;-61
2024/01/05 00:48:09;;;;;;;9.70;5.78;;;;;;;;;;5041931;28;20033;-61
2024/01/05 00:50:35;;;;;;;10.40;6.22;;;;;;;;;;5039949;28;20038;-61
2024/01/05 00:53:01;;;;;;;7.82;5.75;;;;;;;;;;5034796;28;20597;-61
2024/01/05 00:55:27;;;;;;;8.40;6.60;;;;;;;;;;5041499;28;20420;-62
2024/01/05 00:57:53;;;;;;;7.88;6.20;;;;;;;;;;5042050;28;20033;-60
2024/01/05 01:00:19;;;;;;;9.13;6.32;;;;;;;;;;5043755;28;20102;-61
2024/01/05 01:02:45;;;;;;;8.55;6.28;;;;;;;;;;5040918;28;20041;-62
2024/01/05 01:05:11;;;;;;;9.23;6.60;;;;;;;;;;5044537;28;20146;-61
2024/01/05 01:07:37;;;;;;;9.35;6.57;;;;;;;;;;5042751;28;20043;-61
2024/01/05 01:10:03;;;;;;;14.65;7.43;;;;;;;;;;5042453;28;21921;-61
2024/01/05 01:12:28;;;;;;;8.18;6.25;;;;;;;;;;5043654;28;20064;-61
2024/01/05 01:14:55;;;;;;;12.88;7.38;;;;;;;;;;5038960;28;20092;-61
2024/01/05 01:17:22;;;;;;;13.90;7.30;;;;;;;;;;5042783;28;20041;-61
2024/01/05 01:19:48;;;;;;;11.43;7.18;;;;;;;;;;5041249;28;20040;-62
2024/01/05 01:22:14;;;;;;;9.10;7.07;;;;;;;;;;5040878;28;20044;-61
2024/01/05 01:24:40;;;;;;;9.25;6.90;;;;;;;;;;5043268;28;20045;-61
2024/01/05 01:27:06;;;;;;;12.07;7.65;;;;;;;;;;5040683;28;20029;-61
2024/01/05 01:29:32;;;;;;;12.18;8.13;;;;;;;;;;5042643;28;20048;-61
2024/01/05 01:31:58;;;;;;;10.88;7.00;;;;;;;;;;5045256;28;20041;-62
2024/01/05 01:34:24;;;;;;;9.90;6.78;;;;;;;;;;5040210;28;20051;-61
2024/01/05 01:36:51;;;;;;;9.43;7.07;;;;;;;;;;5042456;28;20033;-61
2024/01/05 01:39:17;;;;;;;12.80;7.95;;;;;;;;;;5043937;28;20056;-61
2024/01/05 01:41:44;;;;;;;14.73;8.48;;;;;;;;;;5043195;28;20064;-61
2024/01/05 01:44:10;;;;;;;12.48;7.32;;;;;;;;;;5042188;28;20045;-61
2024/01/05 01:46:36;;;;;;;10.35;7.85;;;;;;;;;;5043722;28;20080;-61
2024/01/05 01:49:06;;;;;;;10.57;7.07;;;;;;;;;;5041952;28;20033;-61
2024/01/05 01:51:32;;;;;;;10.85;7.72;;;;;;;;;;5043930;28;20398;-61
2024/01/05 01:54:02;;;;;;;10.52;7.30;;;;;;;;;;5043490;28;20810;-61
2024/01/05 01:56:28;;;;;;;10.38;7.20;;;;;;;;;;5040497;28;20049;-61
2024/01/05 01:58:54;;;;;;;10.88;7.30;;;;;;;;;;5043231;28;20045;-61
2024/01/05 02:01:20;;;;;;;12.07;7.38;;;;;;;;;;5044998;28;20410;-61
2024/01/05 02:03:46;;;;;;;11.32;7.80;;;;;;;;;;5042316;28;20128;-61
2024/01/05 02:06:12;;;;;;;10.40;6.50;;;;;;;;;;5044467;28;20041;-61
2024/01/05 02:08:39;;;;;;;9.57;7.00;;;;;;;;;;5041204;28;20055;-61
2024/01/05 02:11:04;;;;;;;12.70;7.65;;;;;;;;;;5043915;28;21973;-61
2024/01/05 02:13:32;;;;;;;10.82;6.50;;;;;;;;;;5039842;28;20045;-60
2024/01/05 02:15:57;;;;;;;9.15;6.70;;;;;;;;;;5044428;28;20106;-62
2024/01/05 02:18:23;;;;;;;8.93;6.53;;;;;;;;;;5043938;28;20448;-61
2024/01/05 02:20:49;;;;;;;13.13;6.72;;;;;;;;;;5044706;28;20090;-61
2024/01/05 02:23:21;;;;;;;11.68;7.30;;;;;;;;;;5045175;28;20408;-61
2024/01/05 02:25:48;;;;;;;9.82;6.85;;;;;;;;;;5040978;28;20041;-62
2024/01/05 02:28:14;;;;;;;10.10;6.65;;;;;;;;;;5040357;28;20057;-61
2024/01/05 02:30:40;;;;;;;11.10;7.22;;;;;;;;;;5045259;28;20033;-61
2024/01/05 02:33:06;;;;;;;10.63;6.75;;;;;;;;;;5044413;28;20041;-61
2024/01/05 02:35:31;;;;;;;9.68;6.20;;;;;;;;;;5047772;28;20187;-61
2024/01/05 02:37:57;;;;;;;10.32;6.65;;;;;;;;;;5044551;28;20116;-62
2024/01/05 02:40:23;;;;;;;11.40;6.65;;;;;;;;;;5042076;28;20087;-61
2024/01/05 02:42:49;;;;;;;13.25;7.03;;;;;;;;;;5042144;28;20033;-61
2024/01/05 02:45:20;;;;;;;8.85;6.75;;;;;;;;;;5042375;28;20033;-60
2024/01/05 02:47:49;;;;;;;13.50;7.95;;;;;;;;;;5041344;28;20045;-62
2024/01/05 02:50:16;;;;;;;12.05;7.55;;;;;;;;;;5043980;28;20041;-61
2024/01/05 02:52:42;;;;;;;12.60;7.68;;;;;;;;;;5044161;28;20147;-60
2024/01/05 02:55:08;;;;;;;11.23;7.10;;;;;;;;;;5040599;28;20048;-62
2024/01/05 02:57:34;;;;;;;12.52;7.47;;;;;;;;;;5044894;28;20049;-61
2024/01/05 03:00:00;;;;;;;12.15;7.13;;;;;;;;;;5042517;28;20052;-61
2024/01/05 03:02:29;;;;;;;11.77;7.43;;;;;;;;;;5042401;28;20053;-61
2024/01/05 03:04:55;;;;;;;10.93;7.47;;;;;;;;;;5042991;28;20064;-61
2024/01/05 03:07:21;;;;;;;15.23;7.38;;;;;;;;;;5043770;28;20123;-61
2024/01/05 03:09:47;;;;;;;10.13;6.25;;;;;;;;;;5042656;28;20781;-61
2024/01/05 03:12:13;;;;;;;11.60;6.95;;;;;;;;;;5043018;28;20497;-61
2024/01/05 03:14:39;;;;;;;12.27;7.95;;;;;;;;;;5041510;28;20090;-61
2024/01/05 03:17:05;;;;;;;14.02;7.22;;;;;;;;;;5043063;28;20033;-61
2024/01/05 03:19:31;;;;;;;12.85;7.03;;;;;;;;;;5043547;28;20068;-61
2024/01/05 03:21:58;;;;;;;15.70;8.07;;;;;;;;;;5042966;28;20111;-61
2024/01/05 03:24:24;;;;;;;14.85;7.82;;;;;;;;;;5044138;28;20041;-61
2024/01/05 03:26:50;;;;;;;12.48;7.18;;;;;;;;;;5042827;28;20485;-60
2024/01/05 03:29:16;;;;;;;13.15;7.22;;;;;;;;;;5039541;28;20037;-60
2024/01/05 03:31:45;;;;;;;13.57;6.93;;;;;;;;;;5043245;28;20040;-60
2024/01/05 03:34:11;;;;;;;11.45;7.05;;;;;;;;;;5039709;28;20045;-60
2024/01/05 03:36:37;;;;;;;12.85;7.72;;;;;;;;;;5042742;28;20095;-60
2024/01/05 03:39:03;;;;;;;11.55;7.80;;;;;;;;;;5040991;28;20571;-60
2024/01/05 03:41:29;;;;;;;11.60;7.65;;;;;;;;;;5041666;28;20116;-60
2024/01/05 03:43:55;;;;;;;12.00;7.93;;;;;;;;;;5040317;28;20037;-60
2024/01/05 03:46:21;;;;;;;9.35;7.03;;;;;;;;;;5043810;28;20052;-60
2024/01/05 03:48:47;;;;;;;12.45;7.57;;;;;;;;;;5043369;28;20500;-60
2024/01/05 03:51:13;;;;;;;11.65;7.10;;;;;;;;;;5040729;28;20057;-60
2024/01/05 03:53:39;;;;;;;10.75;7.45;;;;;;;;;;5044342;28;20119;-60
2024/01/05 03:56:06;;;;;;;11.95;8.13;;;;;;;;;;5043215;28;20041;-60
2024/01/05 03:58:32;;;;;;;12.93;8.68;;;;;;;;;;5041548;28;20097;-60
2024/01/05 04:00:58;;;;;;;13.63;7.60;;;;;;;;;;5042436;28;20123;-60
2024/01/05 04:03:24;;;;;;;10.68;7.03;;;;;;;;;;5043571;28;20470;-61
2024/01/05 04:05:50;;;;;;;12.77;7.03;;;;;;;;;;5040830;28;20049;-60
2024/01/05 04:08:16;;;;;;;10.63;6.82;;;;;;;;;;5045078;28;20084;-60
2024/01/05 04:10:42;;;;;;;12.35;7.47;;;;;;;;;;5047517;28;20062;-60
2024/01/05 04:13:08;;;;;;;10.38;6.82;;;;;;;;;;5046033;28;20040;-60
2024/01/05 04:15:37;;;;;;;10.50;6.60;;;;;;;;;;5044816;28;20056;-61
2024/01/05 04:18:03;;;;;;;12.18;7.40;;;;;;;;;;5045752;28;20041;-60
2024/01/05 04:20:29;;;;;;;9.70;6.70;;;;;;;;;;5045440;28;20041;-60
2024/01/05 04:22:55;;;;;;;10.75;7.28;;;;;;;;;;5045201;28;20041;-60
2024/01/05 04:25:21;;;;;;;11.38;7.05;;;;;;;;;;5045218;28;20124;-61
2024/01/05 04:27:47;;;;;;;11.70;6.53;;;;;;;;;;5045555;28;20041;-60
2024/01/05 04:30:13;;;;;;;11.98;6.53;;;;;;;;;;5041378;28;20067;-60
2024/01/05 04:32:39;;;;;;;9.48;6.40;;;;;;;;;;5035316;28;20127;-60
2024/01/05 04:35:06;;;;;;;9.23;6.93;;;;;;;;;;5047190;28;20052;-60
2024/01/05 04:37:32;;;;;;;12.48;7.00;;;;;;;;;;5041549;28;20405;-61
2024/01/05 04:39:58;;;;;;;16.55;6.43;;;;;;;;;;5045262;28;20150;-61
2024/01/05 04:42:26;;;;;;;10.05;6.50;;;;;;;;;;5043667;28;20048;-60
2024/01/05 04:44:52;;;;;;;9.45;6.82;;;;;;;;;;5033279;28;20102;-60
2024/01/05 04:47:18;;;;;;;8.50;6.05;;;;;;;;;;5039617;28;20041;-60
2024/01/05 04:49:44;;;;;;;8.25;6.55;;;;;;;;;;5040727;28;20041;-60
2024/01/05 04:52:10;;;;;;;9.18;6.63;;;;;;;;;;5044053;28;20125;-60
2024/01/05 04:54:37;;;;;;;7.20;5.38;;;;;;;;;;5043266;28;20049;-60
2024/01/05 04:57:03;;;;;;;9.65;5.82;;;;;;;;;;5041167;28;20432;-60
2024/01/05 04:59:29;;;;;;;10.63;6.45;;;;;;;;;;5040694;28;20124;-60
2024/01/05 05:01:55;;;;;;;10.27;5.97;;;;;;;;;;5042848;28;20120;-60
2024/01/05 05:04:21;;;;;;;10.48;6.90;;;;;;;;;;5041952;28;20409;-60
2024/01/05 05:06:47;;;;;;;7.28;5.57;;;;;;;;;;5040827;28;20046;-60
2024/01/05 05:09:13;;;;;;;6.15;4.45;;;;;;;;;;5042874;28;20129;-60
2024/01/05 05:11:42;;;;;;;7.47;5.47;;;;;;;;;;5044866;28;20123;-60
2024/01/05 05:14:08;;;;;;;7.82;5.07;;;;;;;;;;5043437;28;20049;-60
2024/01/05 05:16:37;;;;;;;8.60;5.00;;;;;;;;;;5043220;28;20041;-60
2024/01/05 05:19:04;;;;;;;8.93;5.70;;;;;;;;;;5042118;28;20493;-60
2024/01/05 05:21:30;;;;;;;7.78;5.47;;;;;;;;;;5040302;28;20409;-60
2024/01/05 05:23:56;;;;;;;8.13;5.35;;;;;;;;;;5041251;28;20037;-60
2024/01/05 05:26:23;;;;;;;8.07;5.35;;;;;;;;;;5041569;28;20041;-60
2024/01/05 05:28:49;;;;;;;9.77;5.75;;;;;;;;;;5039901;28;20041;-60
2024/01/05 05:31:15;;;;;;;8.00;5.85;;;;;;;;;;5041480;28;20135;-61
2024/01/05 05:33:41;;;;;;;8.70;5.50;;;;;;;;;;5042586;28;20493;-60
2024/01/05 05:36:07;;;;;;;10.00;6.35;;;;;;;;;;5036595;28;20143;-60
2024/01/05 05:38:33;;;;;;;7.97;5.72;;;;;;;;;;5042884;28;20037;-60
2024/01/05 05:40:59;;;;;;;9.25;5.60;;;;;;;;;;5040681;28;20171;-60
2024/01/05 05:43:25;;;;;;;7.32;4.93;;;;;;;;;;5043427;28;20033;-60
2024/01/05 05:45:51;;;;;;;8.30;5.63;;;;;;;;;;5038156;28;20047;-60
2024/01/05 05:48:17;;;;;;;7.25;5.72;;;;;;;;;;5042252;28;20045;-60
2024/01/05 05:50:43;;;;;;;7.78;5.63;;;;;;;;;;5041232;28;20033;-61
2024/01/05 05:53:10;;;;;;;8.30;6.70;;;;;;;;;;5038970;28;20045;-61
2024/01/05 05:55:36;;;;;;;8.50;6.22;;;;;;;;;;5042444;28;20071;-61
2024/01/05 05:58:02;;;;;;;7.50;5.40;;;;;;;;;;5041069;28;20395;-61
2024/01/05 06:00:28;;;;;;;8.43;5.78;;;;;;;;;;5042338;28;20052;-61
2024/01/05 06:02:54;;;;;;;10.70;5.88;;;;;;;;;;5042086;28;20485;-61
2024/01/05 06:05:20;;;;;;;10.48;6.43;;;;;;;;;;5041442;28;20478;-60
2024/01/05 06:07:46;;;;;;;8.57;6.07;;;;;;;;;;5040194;28;20041;-60
2024/01/05 06:10:12;;;;;;;6.13;5.47;;;;;;;;;;5043311;28;20584;-60
2024/01/05 06:12:38;;;;;;;9.32;6.47;;;;;;;;;;5039874;28;20041;-61
2024/01/05 06:15:04;;;;;;;9.10;6.07;;;;;;;;;;5039843;28;20044;-61
2024/01/05 06:17:30;;;;;;;7.50;5.45;;;;;;;;;;5040052;28;20705;-60
2024/01/05 06:19:56;;;;;;;10.43;6.30;;;;;;;;;;5039529;28;20072;-61
2024/01/05 06:22:22;;;;;;;9.68;6.78;;;;;;;;;;5039835;28;20033;-60
2024/01/05 06:24:48;;;;;;;8.52;5.40;;;;;;;;;;5038080;28;20051;-60
2024/01/05 06:27:14;;;;;;;15.60;6.15;;;;;;;;;;5042155;28;20045;-61
2024/01/05 06:29:40;;;;;;;7.78;5.20;;;;;;;;;;5037986;28;20043;-60
2024/01/05 06:32:06;;;;;;;11.07;6.40;;;;;;;;;;5032831;28;20029;-61
2024/01/05 06:34:32;;;;;;;9.43;6.43;;;;;;;;;;5039253;28;20722;-61
2024/01/05 06:36:59;;;;;;;7.00;6.10;;;;;;;;;;5034450;28;20040;-60
2024/01/05 06:39:25;;;;;;;10.50;6.72;;;;;;;;;;5033412;28;20048;-61
2024/01/05 06:41:51;;;;;;;8.70;6.45;;;;;;;;;;5035062;28;20049;-60
2024/01/05 06:44:17;;;;;;;8.60;6.38;;;;;;;;;;5041721;28;20543;-60
2024/01/05 06:46:43;;;;;;;9.95;6.43;;;;;;;;;;5038429;28;20037;-60
2024/01/05 06:49:09;;;;;;;7.65;5.90;;;;;;;;;;5036596;28;20176;-61
2024/01/05 06:51:38;;;;;;;8.00;5.97;;;;;;;;;;5038336;28;20135;-61
2024/01/05 06:54:05;;;;;;;8.13;5.60;;;;;;;;;;5034314;28;20398;-62
2024/01/05 06:56:34;;;;;;;9.95;6.93;;;;;;;;;;5039515;28;20056;-60
2024/01/05 06:59:04;;;;;;;7.13;5.70;;;;;;;;;;5038349;28;20041;-61
2024/01/05 07:01:31;;;;;;;9.85;7.07;;;;;;;;;;5038491;28;20120;-61
2024/01/05 07:03:57;;;;;;;8.63;6.35;;;;;;;;;;5038382;28;20398;-60
2024/01/05 07:06:23;;;;;;;10.52;7.75;;;;;;;;;;5037909;28;20044;-61
2024/01/05 07:08:49;;;;;;;8.98;7.43;;;;;;;;;;5038523;28;20125;-61
2024/01/05 07:11:24;;;;;;;11.32;7.47;;;;;;;;;;5039164;28;20524;-61
2024/01/05 07:13:51;;;;;;;9.07;6.82;;;;;;;;;;5037770;28;20025;-61
2024/01/05 07:16:17;;;;;;;7.88;6.65;;;;;;;;;;5035545;28;20077;-61
2024/01/05 07:18:43;;;;;;;8.73;6.72;;;;;;;;;;5038272;28;20084;-61
2024/01/05 07:21:09;;;;;;;9.73;6.28;;;;;;;;;;5039063;28;20103;-60
2024/01/05 07:23:36;;;;;;;8.50;6.85;;;;;;;;;;5038383;28;20606;-61
2024/01/05 07:26:02;;;;;;;9.07;7.43;;;;;;;;;;5037322;28;20048;-61
2024/01/05 07:28:28;;;;;;;8.32;6.85;;;;;;;;;;5040785;28;20072;-61
2024/01/05 07:30:54;;;;;;;9.13;7.15;;;;;;;;;;5039991;28;20480;-60
2024/01/05 07:33:20;;;;;;;7.43;5.93;;;;;;;;;;5036900;28;20037;-61
2024/01/05 07:35:46;;;;;;;8.40;6.05;;;;;;;;;;5033862;28;20055;-61
2024/01/05 07:38:12;;;;;;;9.77;5.97;;;;;;;;;;5040980;28;20049;-61
2024/01/05 07:40:38;;;;;;;9.73;6.18;;;;;;;;;;5039831;28;20041;-60
2024/01/05 07:43:04;;;;;;;8.85;6.95;;;;;;;;;;5048855;28;20685;-59
2024/01/05 07:45:30;;;;;;;7.60;6.05;;;;;;;;;;5049141;28;20048;-60
2024/01/05 07:47:57;;;;;;;8.27;6.38;;;;;;;;;;5049340;28;20044;-61
2024/01/05 07:50:24;;;;;;;7.28;5.82;;;;;;;;;;5048370;28;20041;-60
2024/01/05 07:52:51;;;;;;;9.73;6.03;;;;;;;;;;5039552;28;20061;-61
2024/01/05 07:55:17;;;;;;;7.90;5.95;;;;;;;;;;5045271;28;20068;-61
2024/01/05 07:57:44;;;;;;;10.00;7.03;;;;;;;;;;5048419;28;20049;-60
2024/01/05 08:00:10;;;;;;;10.30;7.40;;;;;;;;;;5048924;28;20471;-62
2024/01/05 08:02:36;;;;;;;9.00;6.82;;;;;;;;;;5048876;28;20036;-61
2024/01/05 08:05:02;;;;;;;7.50;6.20;;;;;;;;;;5048160;28;20428;-61
2024/01/05 08:07:28;;;;;;;10.98;6.95;;;;;;;;;;5044953;28;20048;-61
2024/01/05 08:09:54;;;;;;;9.63;7.13;;;;;;;;;;5048378;28;20049;-61
2024/01/05 08:12:21;;;;;;;11.32;7.40;;;;;;;;;;5048310;28;20444;-61
2024/01/05 08:14:47;;;;;;;9.52;7.05;;;;;;;;;;5049002;28;20047;-61
2024/01/05 08:17:13;;;;;;;9.85;6.97;;;;;;;;;;5044550;28;20419;-61
2024/01/05 08:19:39;;;;;;;9.05;6.72;;;;;;;;;;5046749;28;20131;-60
2024/01/05 08:22:05;;;;;;;10.30;6.63;;;;;;;;;;5047687;28;20048;-61
2024/01/05 08:24:31;;;;;;;10.93;8.00;;;;;;;;;;5048379;28;20098;-61
2024/01/05 08:26:57;;;;;;;12.73;8.13;;;;;;;;;;5045125;28;20041;-61
2024/01/05 08:29:23;;;;;;;11.40;8.13;;;;;;;;;;5036571;28;20651;-60
2024/01/05 08:31:49;;;;;;;9.32;7.03;;;;;;;;;;5040529;28;20124;-61
2024/01/05 08:34:16;;;;;;;13.77;8.85;;;;;;;;;;5039660;28;20355;-61
2024/01/05 08:36:42;;;;;;;8.90;7.68;;;;;;;;;;5048979;28;20084;-61
2024/01/05 08:39:08;;;;;;;14.63;9.18;;;;;;;;;;5048709;28;20072;-61
2024/01/05 08:41:34;;;;;;;13.38;9.10;;;;;;;;;;5048290;28;20033;-61
2024/01/05 08:44:00;;;;;;;13.65;10.30;;;;;;;;;;5049037;28;20033;-61
2024/01/05 08:46:30;;;;;;;15.60;9.38;;;;;;;;;;5048175;28;20047;-62
2024/01/05 08:48:56;;;;;;;12.50;9.40;;;;;;;;;;5034390;28;20042;-62
2024/01/05 08:51:22;;;;;;;12.38;8.65;;;;;;;;;;5045034;28;20060;-61
2024/01/05 08:53:48;;;;;;;12.88;8.82;;;;;;;;;;5043413;28;20041;-62
2024/01/05 08:56:14;;;;;;;15.57;8.82;;;;;;;;;;5046019;28;20184;-61
2024/01/05 08:58:40;;;;;;;12.85;8.70;;;;;;;;;;5044722;28;20048;-61
2024/01/05 09:01:06;;;;;;;13.40;9.60;;;;;;;;;;5046919;28;20044;-61
2024/01/05 09:03:32;;;;;;;12.48;8.63;;;;;;;;;;5046180;28;20044;-61
2024/01/05 09:05:58;;;;;;;11.73;8.45;;;;;;;;;;5047957;28;20037;-61
2024/01/05 09:08:25;;;;;;;14.50;9.63;;;;;;;;;;5039834;28;20040;-62
2024/01/05 09:10:51;;;;;;;14.63;9.73;;;;;;;;;;5041846;28;20075;-62
2024/01/05 09:13:17;;;;;;;16.25;10.73;;;;;;;;;;5036723;28;20060;-62
2024/01/05 09:15:43;;;;;;;13.43;10.48;;;;;;;;;;5046968;28;20044;-62
2024/01/05 09:18:09;;;;;;;11.55;9.80;;;;;;;;;;5043935;28;20052;-62
2024/01/05 09:20:36;;;;;;;14.98;9.65;;;;;;;;;;5040134;28;20039;-62
2024/01/05 09:23:02;;;;;;;12.85;8.85;;;;;;;;;;5044034;28;20036;-62
2024/01/05 09:25:30;;;;;;;13.88;9.13;;;;;;;;;;5042358;28;20041;-62
2024/01/05 09:27:56;;;;;;;13.05;9.07;;;;;;;;;;5042073;28;20439;-62
2024/01/05 09:30:23;;;;;;;11.38;8.57;;;;;;;;;;5043739;28;20113;-62
2024/01/05 09:32:49;;;;;;;10.50;8.23;;;;;;;;;;5041027;28;20420;-62
2024/01/05 09:35:16;;;;;;;9.00;7.68;;;;;;;;;;5045241;28;20045;-62
2024/01/05 09:37:42;;;;;;;10.95;8.40;;;;;;;;;;5042780;28;20489;-61
2024/01/05 09:40:10;;;;;;;9.45;7.75;;;;;;;;;;5043626;28;20131;-61
2024/01/05 09:42:36;;;;;;;12.95;7.95;;;;;;;;;;5045887;28;20041;-60
2024/01/05 09:45:03;;;;;;;9.48;7.07;;;;;;;;;;5044269;28;20076;-62
2024/01/05 09:47:29;;;;;;;9.30;7.13;;;;;;;;;;5044571;28;20048;-61
2024/01/05 09:49:55;;;;;;;7.28;6.40;;;;;;;;;;5044573;28;20627;-61
2024/01/05 09:52:21;;;;;;;8.98;7.00;;;;;;;;;;5044128;28;20067;-61
2024/01/05 09:54:49;;;;;;;9.32;7.25;;;;;;;;;;5044465;28;20493;-63
2024/01/05 09:57:18;;;;;;;8.52;7.00;;;;;;;;;;5043967;28;20076;-62
2024/01/05 09:59:47;;;;;;;8.93;6.82;;;;;;;;;;5044359;28;20037;-62
2024/01/05 10:02:16;;;;;;;9.27;7.18;;;;;;;;;;5038982;28;20063;-62
2024/01/05 10:04:42;;;;;;;9.35;6.95;;;;;;;;;;5043805;28;20041;-62
2024/01/05 10:07:08;;;;;;;8.48;6.90;;;;;;;;;;5045395;28;20651;-62
2024/01/05 10:09:48;;;;;;;7.07;5.97;;;;;;;;;;5042903;28;20183;-62
2024/01/05 10:12:14;;;;;;;9.05;6.47;;;;;;;;;;5040143;28;20079;-62
2024/01/05 10:14:40;;;;;;;8.75;7.78;;;;;;;;;;5042310;28;20489;-62
2024/01/05 10:17:09;;;;;;;7.50;6.45;;;;;;;;;;5041614;28;20551;-62
2024/01/05 10:19:35;;;;;;;7.68;6.80;;;;;;;;;;5044603;28;20037;-62
2024/01/05 10:22:11;;;;;;;7.15;6.18;;;;;;;;;;5043377;28;20055;-62
2024/01/05 10:24:37;;;;;;;7.47;6.18;;;;;;;;;;5041926;28;20394;-62
2024/01/05 10:27:07;;;;;;;9.07;6.72;;;;;;;;;;5042466;28;20411;-62
2024/01/05 10:29:35;;;;;;;7.18;6.32;;;;;;;;;;5043246;28;20457;-62
2024/01/05 10:32:14;;;;;;;9.32;6.70;;;;;;;;;;5043297;28;20044;-62
2024/01/05 10:34:41;;;;;;;8.48;6.88;;;;;;;;;;5042933;28;20123;-62
2024/01/05 10:37:07;;;;;;;8.15;6.85;;;;;;;;;;5041852;28;20045;-61
2024/01/05 10:39:35;;;;;;;9.40;6.57;;;;;;;;;;5041947;28;20086;-62
2024/01/05 10:42:16;;;;;;;9.18;7.55;;;;;;;;;;5043809;28;20059;-62
2024/01/05 10:44:43;;;;;;;9.57;7.03;;;;;;;;;;5037392;28;20061;-62
2024/01/05 10:47:09;;;;;;;9.98;7.68;;;;;;;;;;5038872;28;20043;-62
2024/01/05 10:49:35;;;;;;;9.93;7.60;;;;;;;;;;5040218;28;20045;-62
2024/01/05 10:52:02;;;;;;;9.75;7.72;;;;;;;;;;5044956;28;20139;-62
2024/01/05 10:54:30;;;;;;;10.10;8.55;;;;;;;;;;5044375;28;20033;-62
2024/01/05 10:56:57;;;;;;;9.27;7.43;;;;;;;;;;5041525;28;20099;-62
2024/01/05 10:59:24;;;;;;;11.15;8.60;;;;;;;;;;5044841;28;20591;-62
2024/01/05 11:01:50;;;;;;;11.20;8.15;;;;;;;;;;5042902;28;20032;-62
2024/01/05 11:04:18;;;;;;;10.20;8.30;;;;;;;;;;5044764;28;20059;-62
2024/01/05 11:06:44;;;;;;;10.27;8.45;;;;;;;;;;5043732;28;20136;-62
2024/01/05 11:09:28;;;;;;;9.90;8.25;;;;;;;;;;5045994;28;20041;-62
2024/01/05 11:12:15;;;;;;;11.52;9.25;;;;;;;;;;5044897;28;20451;-62
2024/01/05 11:15:00;;;;;;;13.30;9.95;;;;;;;;;;5045260;28;20133;-62
2024/01/05 11:17:35;;;;;;;12.10;9.20;;;;;;;;;;5048253;28;20041;-62
2024/01/05 11:20:15;;;;;;;11.05;8.65;;;;;;;;;;5050025;28;20044;-62
2024/01/05 11:22:45;;;;;;;10.30;8.02;;;;;;;;;;5051815;28;20041;-62
2024/01/05 11:25:11;;;;;;;9.10;8.15;;;;;;;;;;5052121;28;20044;-62
2024/01/05 11:27:38;;;;;;;9.82;7.88;;;;;;;;;;5051451;28;20045;-62
2024/01/05 11:30:05;;;;;;;10.32;7.68;;;;;;;;;;5048179;28;20047;-63
2024/01/05 11:32:35;;;;;;;8.85;7.57;;;;;;;;;;5049026;28;20826;-62
2024/01/05 11:35:02;;;;;;;8.48;7.55;;;;;;;;;;5049145;28;20144;-62
2024/01/05 11:37:31;;;;;;;7.97;7.15;;;;;;;;;;5050876;28;20051;-61
2024/01/05 11:39:59;;;;;;;9.00;7.63;;;;;;;;;;5050378;28;20382;-61
2024/01/05 11:42:25;;;;;;;8.07;6.80;;;;;;;;;;5050360;28;20064;-62
2024/01/05 11:44:52;;;;;;;8.73;6.93;;;;;;;;;;5047548;28;20048;-63
2024/01/05 11:47:36;;;;;;;11.02;7.43;;;;;;;;;;5046278;28;20155;-62
2024/01/05 11:50:21;;;;;;;9.43;7.68;;;;;;;;;;5049654;28;20045;-62
2024/01/05 11:52:47;;;;;;;9.05;7.22;;;;;;;;;;5049569;28;20059;-62
2024/01/05 11:55:13;;;;;;;10.32;8.10;;;;;;;;;;5050937;28;20041;-62
2024/01/05 11:57:40;;;;;;;8.90;7.07;;;;;;;;;;5050916;28;20072;-63
2024/01/05 12:00:06;;;;;;;9.95;8.05;;;;;;;;;;5051163;28;20444;-62
2024/01/05 12:02:32;;;;;;;10.07;7.38;;;;;;;;;;5044484;28;20994;-63
2024/01/05 12:04:58;;;;;;;10.05;7.68;;;;;;;;;;5051117;28;20033;-62
2024/01/05 12:07:29;;;;;;;9.77;7.97;;;;;;;;;;5050814;28;20037;-62
2024/01/05 12:09:55;;;;;;;10.13;8.00;;;;;;;;;;5048643;28;20128;-62
2024/01/05 12:12:21;;;;;;;8.60;7.35;;;;;;;;;;5050853;28;20548;-62
2024/01/05 12:14:47;;;;;;;10.35;8.18;;;;;;;;;;5049608;28;20029;-62
2024/01/05 12:17:14;;;;;;;12.18;8.10;;;;;;;;;;5050586;28;20114;-63
2024/01/05 12:19:40;;;;;;;11.52;8.68;;;;;;;;;;5051571;28;20037;-63
2024/01/05 12:22:09;;;;;;;12.32;9.85;;;;;;;;;;5052243;28;20040;-63
2024/01/05 12:24:36;;;;;;;10.93;8.68;;;;;;;;;;5051736;28;20037;-63
2024/01/05 12:27:01;;;;;;;11.02;9.55;;;;;;;;;;5047347;28;21107;-63
2024/01/05 12:29:27;;;;;;;10.98;9.32;;;;;;;;;;5049530;28;20037;-63
2024/01/05 12:31:54;;;;;;;12.48;9.23;;;;;;;;;;5048826;28;20037;-63
2024/01/05 12:34:20;;;;;;;14.32;9.57;;;;;;;;;;5049365;28;20103;-62
2024/01/05 12:36:46;;;;;;;10.45;8.63;;;;;;;;;;5049147;28;20033;-62
2024/01/05 12:39:12;;;;;;;11.45;8.15;;;;;;;;;;5048522;28;20040;-62
2024/01/05 12:41:41;;;;;;;9.80;8.30;;;;;;;;;;5047214;28;20045;-62
2024/01/05 12:44:09;;;;;;;10.93;7.95;;;;;;;;;;5047220;28;20048;-62
2024/01/05 12:46:45;;;;;;;8.73;7.80;;;;;;;;;;5048129;28;20041;-62
2024/01/05 12:49:18;;;;;;;10.77;8.50;;;;;;;;;;5049095;28;20049;-63
2024/01/05 12:51:48;;;;;;;7.60;6.80;;;;;;;;;;5039933;28;20053;-63
2024/01/05 12:54:14;;;;;;;8.98;7.32;;;;;;;;;;5048698;28;20071;-63
2024/01/05 12:56:44;;;;;;;10.30;8.13;;;;;;;;;;5048798;28;20045;-62
2024/01/05 12:59:11;;;;;;;9.57;8.10;;;;;;;;;;5043079;28;20567;-62
2024/01/05 13:01:39;;;;;;;9.13;7.55;;;;;;;;;;5048959;28;20493;-62
2024/01/05 13:04:07;;;;;;;9.38;7.82;;;;;;;;;;5048606;28;20041;-63
2024/01/05 13:06:33;;;;;;;10.40;7.28;;;;;;;;;;5048081;28;20146;-63
2024/01/05 13:08:59;;;;;;;8.60;7.70;;;;;;;;;;5048277;28;20073;-62
2024/01/05 13:11:25;;;;;;;7.53;6.65;;;;;;;;;;5047716;28;20861;-63
2024/01/05 13:13:52;;;;;;;7.03;6.25;;;;;;;;;;5046210;28;20049;-62
2024/01/05 13:16:18;;;;;;;6.68;5.95;;;;;;;;;;5048357;28;20052;-62
2024/01/05 13:18:44;;;;;;;5.45;4.93;;;;;;;;;;5047437;28;20056;-62
2024/01/05 13:21:11;;;;;;;6.88;5.85;;;;;;;;;;5048392;28;20073;-63
2024/01/05 13:23:38;;;;;;;6.75;5.45;;;;;;;;;;5048242;28;20048;-63
2024/01/05 13:26:04;;;;;;;6.78;5.18;;;;;;;;;;5047995;28;20048;-63
2024/01/05 13:28:30;;;;;;;7.65;5.72;;;;;;;;;;5047502;28;20037;-63
2024/01/05 13:30:57;;;;;;;6.93;5.57;;;;;;;;;;5047789;28;20041;-63
2024/01/05 13:33:23;;;;;;;7.30;5.55;;;;;;;;;;5037675;28;20051;-63
2024/01/05 13:35:49;;;;;;;6.03;4.93;;;;;;;;;;5047364;28;20068;-63
2024/01/05 13:38:15;;;;;;;5.30;4.78;;;;;;;;;;5047717;28;20103;-63
2024/01/05 13:40:41;;;;;;;5.43;4.93;;;;;;;;;;5047347;28;20409;-63
2024/01/05 13:43:08;;;;;;;7.68;5.78;;;;;;;;;;5040858;28;20073;-63
2024/01/05 13:45:34;;;;;;;7.60;6.07;;;;;;;;;;5040106;28;20088;-62
2024/01/05 13:48:00;;;;;;;6.13;5.53;;;;;;;;;;5034252;28;20040;-62
2024/01/05 13:50:26;;;;;;;7.78;5.55;;;;;;;;;;5043060;28;20181;-62
2024/01/05 13:52:52;;;;;;;5.20;4.70;;;;;;;;;;5046608;28;20049;-63
2024/01/05 13:55:18;;;;;;;4.70;4.18;;;;;;;;;;5040924;28;20052;-62
2024/01/05 13:57:44;;;;;;;5.15;4.65;;;;;;;;;;5042678;28;20090;-62
2024/01/05 14:00:11;;;;;;;4.82;4.35;;;;;;;;;;5043790;28;20040;-62
2024/01/05 14:02:37;;;;;;;6.78;4.63;;;;;;;;;;5043669;28;20063;-62
2024/01/05 14:05:04;;;;;;;4.88;4.38;;;;;;;;;;5043069;28;20330;-62
2024/01/05 14:07:30;;;;;;;4.38;3.97;;;;;;;;;;5043067;28;20158;-63
2024/01/05 14:09:57;;;;;;;6.35;4.60;;;;;;;;;;5039443;28;20045;-63
2024/01/05 14:12:26;;;;;;;3.92;3.63;;;;;;;;;;5043162;28;20049;-62
2024/01/05 14:14:52;;;;;;;5.13;3.60;;;;;;;;;;5042375;28;20099;-62
2024/01/05 14:17:18;;;;;;;4.85;4.45;;;;;;;;;;5042688;28;20778;-62
2024/01/05 14:19:45;;;;;;;4.80;4.22;;;;;;;;;;5042550;28;20044;-62
2024/01/05 14:22:11;;;;;;;4.45;4.03;;;;;;;;;;5041671;28;20045;-62
2024/01/05 14:24:40;;;;;;;4.28;3.88;;;;;;;;;;5043092;28;20032;-62
2024/01/05 14:27:06;;;;;;;4.47;4.07;;;;;;;;;;5043999;28;20128;-63
2024/01/05 14:29:32;;;;;;;3.92;3.63;;;;;;;;;;5042858;28;20119;-63
2024/01/05 14:31:59;;;;;;;4.30;3.90;;;;;;;;;;5039129;28;20040;-63
2024/01/05 14:34:26;;;;;;;3.85;3.13;;;;;;;;;;5043767;28;20583;-63
2024/01/05 14:36:52;;;;;;;4.35;3.95;;;;;;;;;;5044571;28;20037;-63